Time;durP1;ratioP1;P1;durP2;ratioP2;P2;SDS_P1;SDS_P2;PMS_P1;PMS_P2;Temp;Humidity;BMP_temperature;BMP_pressure;BME280_temperature;BME280_humidity;BME280_pressure;Samples;Min_cycle;Max_cycle;Signal;HPM_P1;HPM_P2
2022/12/12 00:01:17;;;;;;;6.43;4.20;;;-4.60;99.90;;;;;;5083363;28;20289;-76
2022/12/12 00:03:45;;;;;;;6.45;4.25;;;-4.60;99.90;;;;;;5084305;28;20239;-76
2022/12/12 00:06:12;;;;;;;8.88;4.45;;;-4.70;99.90;;;;;;5081646;28;20240;-76
2022/12/12 00:08:39;;;;;;;9.23;5.45;;;-4.80;99.90;;;;;;5086408;28;20322;-76
2022/12/12 00:11:07;;;;;;;10.82;4.35;;;-4.70;99.90;;;;;;5080644;28;20233;-76
2022/12/12 00:13:34;;;;;;;7.53;6.20;;;-4.70;99.90;;;;;;5078265;28;20237;-77
2022/12/12 00:16:01;;;;;;;5.63;4.32;;;-4.80;99.90;;;;;;5084114;28;20290;-77
2022/12/12 00:18:28;;;;;;;8.23;3.75;;;-4.80;99.90;;;;;;5086941;28;20232;-76
2022/12/12 00:20:57;;;;;;;8.10;4.70;;;-4.80;99.90;;;;;;5082065;28;20232;-78
2022/12/12 00:23:25;;;;;;;7.28;4.68;;;-4.80;99.90;;;;;;5075870;28;20258;-76
2022/12/12 00:25:56;;;;;;;7.32;4.85;;;-5.00;99.90;;;;;;5080845;28;20734;-77
2022/12/12 00:28:23;;;;;;;8.05;5.82;;;-5.00;99.90;;;;;;5087161;28;20252;-77
2022/12/12 00:30:51;;;;;;;6.88;5.47;;;-4.90;99.90;;;;;;5086462;28;20293;-78
2022/12/12 00:33:18;;;;;;;11.45;6.35;;;-4.90;99.90;;;;;;5078567;28;20233;-78
2022/12/12 00:35:46;;;;;;;9.98;5.68;;;-4.80;99.90;;;;;;5087013;28;20236;-78
2022/12/12 00:38:14;;;;;;;9.25;6.03;;;-4.70;99.90;;;;;;5067800;28;20245;-78
2022/12/12 00:40:41;;;;;;;9.60;6.63;;;-4.70;99.90;;;;;;5083736;28;20205;-78
2022/12/12 00:43:08;;;;;;;8.88;5.53;;;-4.70;99.90;;;;;;5080022;28;20255;-78
2022/12/12 00:45:36;;;;;;;13.70;7.38;;;-4.70;99.90;;;;;;5086506;28;20236;-78
2022/12/12 00:48:03;;;;;;;12.40;6.63;;;-4.70;99.90;;;;;;5084808;28;20260;-78
2022/12/12 00:50:30;;;;;;;9.50;5.20;;;-4.70;99.90;;;;;;5084496;28;20298;-78
2022/12/12 00:52:58;;;;;;;12.52;7.82;;;-4.80;99.90;;;;;;5079793;28;20637;-78
2022/12/12 00:55:27;;;;;;;11.98;7.60;;;-4.80;99.90;;;;;;5079850;28;20240;-78
2022/12/12 00:57:54;;;;;;;12.70;7.32;;;-4.80;99.90;;;;;;5082666;28;20289;-78
2022/12/12 01:00:22;;;;;;;9.85;6.30;;;-4.90;99.90;;;;;;5074858;28;20259;-78
2022/12/12 01:02:49;;;;;;;7.68;6.07;;;-5.00;99.90;;;;;;5077867;28;20239;-78
2022/12/12 01:05:16;;;;;;;10.50;7.22;;;-5.00;99.90;;;;;;5076622;28;20240;-78
2022/12/12 01:07:43;;;;;;;9.23;6.07;;;-5.10;99.90;;;;;;5072167;28;20310;-78
2022/12/12 01:10:10;;;;;;;8.60;5.28;;;-5.20;99.90;;;;;;5065251;28;20244;-78
2022/12/12 01:12:39;;;;;;;15.20;7.07;;;-5.20;99.90;;;;;;5070436;28;20263;-78
2022/12/12 01:15:08;;;;;;;11.13;6.63;;;-5.20;99.90;;;;;;5071807;28;20233;-78
2022/12/12 01:17:36;;;;;;;9.70;6.65;;;-5.20;99.90;;;;;;5074083;28;20194;-78
2022/12/12 01:20:05;;;;;;;13.63;7.68;;;-5.20;99.90;;;;;;5066603;28;21733;-78
2022/12/12 01:22:32;;;;;;;10.70;6.45;;;-5.20;99.90;;;;;;5081250;28;20197;-78
2022/12/12 01:24:59;;;;;;;11.90;6.35;;;-5.30;99.90;;;;;;5079028;28;20247;-78
2022/12/12 01:27:26;;;;;;;7.50;6.25;;;-5.20;99.90;;;;;;5076194;28;20228;-78
2022/12/12 01:29:57;;;;;;;11.35;7.10;;;-5.20;99.90;;;;;;5081084;28;20278;-78
2022/12/12 01:32:24;;;;;;;11.00;6.53;;;-5.10;99.90;;;;;;5085712;28;20241;-78
2022/12/12 01:34:51;;;;;;;12.07;7.35;;;-5.00;99.90;;;;;;5084795;28;20582;-78
2022/12/12 01:37:18;;;;;;;7.55;5.68;;;-5.10;99.90;;;;;;5078777;28;20237;-78
2022/12/12 01:39:45;;;;;;;9.35;6.30;;;-5.10;99.90;;;;;;5079566;28;20554;-78
2022/12/12 01:42:14;;;;;;;9.93;7.35;;;-5.20;99.90;;;;;;5082554;28;20208;-78
2022/12/12 01:44:44;;;;;;;11.40;6.95;;;-5.20;99.90;;;;;;5085261;28;20236;-78
2022/12/12 01:47:16;;;;;;;11.77;9.02;;;-5.10;99.90;;;;;;5079498;28;20256;-78
2022/12/12 01:49:47;;;;;;;13.60;6.55;;;-5.10;99.90;;;;;;5076856;28;20615;-78
2022/12/12 01:52:22;;;;;;;14.55;8.63;;;-5.00;99.90;;;;;;5079990;28;20244;-78
2022/12/12 01:54:54;;;;;;;15.52;8.18;;;-5.00;99.90;;;;;;5085383;28;20293;-78
2022/12/12 01:57:26;;;;;;;11.52;8.15;;;-5.00;99.90;;;;;;5077997;28;20251;-78
2022/12/12 01:59:53;;;;;;;12.35;8.18;;;-4.90;99.90;;;;;;5084651;28;20244;-78
2022/12/12 02:02:22;;;;;;;14.43;8.55;;;-4.80;99.90;;;;;;5085739;28;20288;-78
2022/12/12 02:04:49;;;;;;;14.45;10.25;;;-4.70;99.90;;;;;;5085078;28;20237;-76
2022/12/12 02:07:16;;;;;;;15.18;8.88;;;-4.70;99.90;;;;;;5070015;28;20279;-76
2022/12/12 02:09:44;;;;;;;11.20;8.13;;;-4.60;99.90;;;;;;5081860;28;20657;-78
2022/12/12 02:12:13;;;;;;;12.82;8.52;;;-4.50;99.90;;;;;;5073317;28;20246;-78
2022/12/12 02:14:43;;;;;;;9.75;7.05;;;-4.50;99.90;;;;;;5085758;28;20248;-76
2022/12/12 02:17:37;;;;;;;16.48;9.27;;;-4.40;99.90;;;;;;5083069;28;20711;-76
2022/12/12 02:20:33;;;;;;;11.27;8.00;;;-4.40;99.90;;;;;;5079194;28;20258;-76
2022/12/12 02:23:35;;;;;;;13.57;8.57;;;-4.30;99.90;;;;;;5081447;28;20229;-79
2022/12/12 02:26:35;;;;;;;13.95;6.20;;;-4.40;99.90;;;;;;5074466;28;20249;-77
2022/12/12 02:29:25;;;;;;;11.20;7.03;;;-4.40;99.90;;;;;;5077699;28;20268;-78
2022/12/12 02:32:00;;;;;;;12.00;7.65;;;-4.30;99.90;;;;;;5080956;28;20197;-76
2022/12/12 02:34:34;;;;;;;13.07;7.75;;;-4.20;99.90;;;;;;5088365;28;20235;-77
2022/12/12 02:37:07;;;;;;;9.77;7.57;;;-4.30;99.90;;;;;;5073711;28;20236;-78
2022/12/12 02:39:44;;;;;;;11.90;6.70;;;-4.30;99.90;;;;;;5083541;28;20237;-76
2022/12/12 02:42:19;;;;;;;9.75;7.80;;;-4.40;99.90;;;;;;5084171;28;20264;-76
2022/12/12 02:44:54;;;;;;;11.95;6.80;;;-4.30;99.90;;;;;;5082062;28;20240;-76
2022/12/12 02:47:26;;;;;;;13.65;7.75;;;-4.30;99.90;;;;;;5084490;28;20271;-76
2022/12/12 02:49:56;;;;;;;8.52;5.60;;;-4.30;99.90;;;;;;5092695;28;20228;-76
2022/12/12 02:52:24;;;;;;;6.57;4.63;;;-4.20;99.90;;;;;;5073548;28;20252;-76
2022/12/12 02:54:51;;;;;;;13.23;7.43;;;-4.20;99.90;;;;;;5086761;28;20240;-76
2022/12/12 02:57:20;;;;;;;9.02;6.28;;;-4.10;99.90;;;;;;5069071;28;20233;-77
2022/12/12 02:59:51;;;;;;;10.88;6.43;;;-4.10;99.90;;;;;;5076198;28;20306;-76
2022/12/12 03:02:43;;;;;;;9.30;7.38;;;-4.10;99.90;;;;;;5077761;28;20263;-76
2022/12/12 03:08:19;;;;;;;8.18;5.82;;;-4.10;99.90;;;;;;5073973;28;20260;-77
2022/12/12 03:10:55;;;;;;;8.48;5.78;;;-4.00;99.90;;;;;;5072036;28;20232;-76
2022/12/12 03:13:30;;;;;;;14.60;7.15;;;-4.00;99.90;;;;;;5078971;28;20254;-77
2022/12/12 03:16:05;;;;;;;9.20;5.57;;;-4.00;99.90;;;;;;5078855;28;20201;-77
2022/12/12 03:18:38;;;;;;;8.05;5.35;;;-4.10;99.90;;;;;;5086782;28;20296;-76
2022/12/12 03:21:07;;;;;;;10.93;7.00;;;-4.00;99.90;;;;;;5085866;28;20233;-77
2022/12/12 03:23:39;;;;;;;12.35;8.65;;;-4.00;99.90;;;;;;5085870;28;20205;-77
2022/12/12 03:26:11;;;;;;;10.70;7.38;;;-4.00;99.90;;;;;;5073418;28;20702;-77
2022/12/12 03:28:43;;;;;;;8.50;5.45;;;-4.00;99.90;;;;;;5081525;28;20253;-77
2022/12/12 03:31:13;;;;;;;8.80;7.18;;;-4.00;99.90;;;;;;5085859;28;20297;-77
2022/12/12 03:33:46;;;;;;;10.65;5.80;;;-4.00;99.90;;;;;;5085959;28;20240;-77
2022/12/12 03:36:17;;;;;;;7.65;5.30;;;-4.00;99.90;;;;;;5073477;28;20749;-77
2022/12/12 03:38:55;;;;;;;10.10;5.97;;;-3.90;99.90;;;;;;5083747;28;20255;-77
2022/12/12 03:41:25;;;;;;;11.15;6.72;;;-3.90;99.90;;;;;;5085554;28;20742;-76
2022/12/12 03:43:58;;;;;;;10.07;6.95;;;-3.90;99.90;;;;;;5085949;28;20294;-76
2022/12/12 03:46:30;;;;;;;12.98;7.38;;;-3.90;99.90;;;;;;5082301;28;20204;-76
2022/12/12 03:49:03;;;;;;;9.05;6.45;;;-3.90;99.90;;;;;;5078096;28;20259;-77
2022/12/12 03:51:32;;;;;;;14.00;6.30;;;-3.90;99.90;;;;;;5080767;28;20258;-77
2022/12/12 03:54:07;;;;;;;11.45;7.10;;;-3.90;99.90;;;;;;5078970;28;20229;-77
2022/12/12 03:56:40;;;;;;;12.23;7.60;;;-3.90;99.90;;;;;;5071708;28;20289;-77
2022/12/12 03:59:10;;;;;;;6.53;5.05;;;-3.90;99.90;;;;;;5075921;28;20224;-78
2022/12/12 04:01:46;;;;;;;10.52;7.28;;;-3.90;99.90;;;;;;5078465;28;20800;-78
2022/12/12 04:04:21;;;;;;;12.93;6.78;;;-3.90;99.90;;;;;;5079713;28;20283;-78
2022/12/12 04:06:52;;;;;;;11.25;6.63;;;-3.90;99.90;;;;;;5083688;28;20227;-78
2022/12/12 04:15:19;;;;;;;11.95;8.25;;;-4.00;99.90;;;;;;5075402;28;20212;-78
2022/12/12 04:17:57;;;;;;;10.13;6.15;;;-4.10;99.90;;;;;;5085655;28;20225;-78
2022/12/12 04:23:23;;;;;;;10.90;6.40;;;-4.30;99.90;;;;;;5084233;28;20238;-78
2022/12/12 04:28:53;;;;;;;9.43;6.30;;;-4.30;99.90;;;;;;5086429;28;20272;-76
2022/12/12 04:31:25;;;;;;;13.60;8.02;;;-4.20;99.90;;;;;;5080773;28;20236;-76
2022/12/12 04:33:56;;;;;;;11.95;7.85;;;-4.10;99.90;;;;;;5086005;28;20240;-76
2022/12/12 04:36:25;;;;;;;13.77;8.68;;;-4.00;99.90;;;;;;5084628;28;20201;-76
2022/12/12 04:38:53;;;;;;;10.73;6.93;;;-3.90;99.90;;;;;;5079950;28;20227;-75
2022/12/12 04:41:22;;;;;;;11.63;7.18;;;-3.90;99.90;;;;;;5080625;28;20247;-76
2022/12/12 04:43:50;;;;;;;11.80;7.00;;;-3.90;99.90;;;;;;5083949;28;20236;-76
2022/12/12 04:46:21;;;;;;;12.13;8.00;;;-4.00;99.90;;;;;;5070066;28;20299;-76
2022/12/12 04:48:52;;;;;;;9.30;6.78;;;-3.90;99.90;;;;;;5085889;28;20259;-76
2022/12/12 04:51:26;;;;;;;8.60;6.72;;;-3.90;99.90;;;;;;5072674;28;20233;-78
2022/12/12 04:53:59;;;;;;;11.05;6.70;;;-3.80;99.90;;;;;;5076786;28;20600;-78
2022/12/12 04:56:30;;;;;;;11.18;7.43;;;-3.70;99.90;;;;;;5075711;28;20819;-76
2022/12/12 04:58:58;;;;;;;10.30;7.50;;;-3.70;99.90;;;;;;5071985;28;20614;-77
2022/12/12 05:01:32;;;;;;;13.23;6.78;;;-3.70;99.90;;;;;;5064184;28;20308;-78
2022/12/12 05:04:03;;;;;;;15.10;7.32;;;-3.60;99.90;;;;;;5071801;28;20246;-78
2022/12/12 05:06:37;;;;;;;12.23;6.63;;;-3.60;99.90;;;;;;5074223;28;20229;-78
2022/12/12 05:09:05;;;;;;;11.57;7.65;;;-3.60;99.90;;;;;;5069342;28;20226;-78
2022/12/12 05:11:33;;;;;;;13.02;8.48;;;-3.50;99.90;;;;;;5081445;28;20205;-76
2022/12/12 05:13:59;;;;;;;9.70;6.55;;;-3.40;99.90;;;;;;5073824;28;20294;-76
2022/12/12 05:16:32;;;;;;;12.18;6.63;;;-3.40;99.90;;;;;;5072317;28;20255;-76
2022/12/12 05:18:59;;;;;;;9.75;8.60;;;-3.40;99.90;;;;;;5072963;28;20200;-76
2022/12/12 05:21:26;;;;;;;14.23;8.98;;;-3.40;99.90;;;;;;5078336;28;20239;-76
2022/12/12 05:23:54;;;;;;;13.20;9.55;;;-3.50;99.90;;;;;;5076250;28;20237;-76
2022/12/12 05:26:24;;;;;;;13.50;9.95;;;-3.50;99.90;;;;;;5069009;28;20292;-76
2022/12/12 05:28:51;;;;;;;16.67;9.75;;;-3.60;99.90;;;;;;5074066;28;20264;-77
2022/12/12 05:31:18;;;;;;;10.60;7.90;;;-3.60;99.90;;;;;;5075482;28;20638;-77
2022/12/12 05:33:46;;;;;;;14.82;8.57;;;-3.50;99.90;;;;;;5065661;28;20263;-77
2022/12/12 05:36:14;;;;;;;14.90;10.25;;;-3.50;99.90;;;;;;5076680;28;20208;-77
2022/12/12 05:38:41;;;;;;;12.43;7.47;;;-3.50;99.90;;;;;;5068959;28;20239;-77
2022/12/12 05:41:10;;;;;;;15.63;9.30;;;-3.50;99.90;;;;;;5071376;28;20248;-77
2022/12/12 05:43:38;;;;;;;13.50;8.00;;;-3.50;99.90;;;;;;5069890;28;20206;-77
2022/12/12 05:46:06;;;;;;;13.32;9.60;;;-3.60;99.90;;;;;;5065944;28;20433;-77
2022/12/12 05:48:33;;;;;;;17.10;9.95;;;-3.60;99.90;;;;;;5073422;28;20224;-77
2022/12/12 05:51:01;;;;;;;15.52;9.55;;;-3.60;99.90;;;;;;5076052;28;20288;-77
2022/12/12 05:53:29;;;;;;;13.60;8.65;;;-3.60;99.90;;;;;;5072198;28;20202;-77
2022/12/12 05:55:56;;;;;;;13.27;9.40;;;-3.70;99.90;;;;;;5075302;28;20881;-77
2022/12/12 05:58:24;;;;;;;15.38;8.32;;;-3.80;99.90;;;;;;5071120;28;20248;-77
2022/12/12 06:00:52;;;;;;;16.70;10.00;;;-3.90;99.90;;;;;;5081964;28;20241;-77
2022/12/12 06:03:20;;;;;;;21.73;12.23;;;-3.90;99.90;;;;;;5077516;28;20208;-77
2022/12/12 06:05:47;;;;;;;16.50;11.60;;;-4.00;99.90;;;;;;5072589;28;20224;-77
2022/12/12 06:08:14;;;;;;;16.80;10.27;;;-4.10;99.90;;;;;;5071339;28;20256;-77
2022/12/12 06:10:41;;;;;;;26.17;16.20;;;-4.10;99.90;;;;;;5078113;28;20708;-77
2022/12/12 06:13:08;;;;;;;24.98;13.85;;;-4.20;99.90;;;;;;5069219;28;20241;-76
2022/12/12 06:15:39;;;;;;;24.65;12.00;;;-4.20;99.90;;;;;;5073532;28;20229;-76
2022/12/12 06:18:06;;;;;;;18.20;11.07;;;-4.30;99.90;;;;;;5082425;28;20209;-76
2022/12/12 06:20:33;;;;;;;17.77;12.45;;;-4.30;99.90;;;;;;5077069;28;20287;-76
2022/12/12 06:23:00;;;;;;;18.92;12.85;;;-4.40;99.90;;;;;;5080394;28;20258;-76
2022/12/12 06:25:27;;;;;;;18.65;11.40;;;-4.50;99.90;;;;;;5078487;28;20291;-76
2022/12/12 06:27:54;;;;;;;15.73;10.25;;;-4.50;99.90;;;;;;5083612;28;20761;-76
2022/12/12 06:30:21;;;;;;;22.25;12.60;;;-4.50;99.90;;;;;;5078765;28;20337;-76
2022/12/12 06:32:49;;;;;;;16.58;10.45;;;-4.50;99.90;;;;;;5080093;28;20225;-76
2022/12/12 06:35:16;;;;;;;17.17;9.95;;;-4.50;99.90;;;;;;5085182;28;20255;-76
2022/12/12 06:37:43;;;;;;;23.67;13.73;;;-4.50;99.90;;;;;;5087824;28;20239;-76
2022/12/12 06:40:12;;;;;;;21.75;12.00;;;-4.60;99.90;;;;;;5064165;28;20282;-77
2022/12/12 06:42:38;;;;;;;19.02;12.30;;;-4.70;99.90;;;;;;5066319;28;20334;-76
2022/12/12 06:45:07;;;;;;;17.88;10.45;;;-4.70;99.90;;;;;;5068721;28;20828;-76
2022/12/12 06:47:34;;;;;;;17.55;10.63;;;-4.70;99.90;;;;;;5076354;28;20232;-76
2022/12/12 06:50:02;;;;;;;16.85;9.80;;;-4.80;99.90;;;;;;5076238;28;20257;-76
2022/12/12 06:52:30;;;;;;;13.18;9.52;;;-4.80;99.90;;;;;;5068480;28;20641;-76
2022/12/12 06:54:57;;;;;;;18.80;10.88;;;-4.80;99.90;;;;;;5067587;28;20834;-76
2022/12/12 06:57:24;;;;;;;15.30;9.98;;;-4.80;99.90;;;;;;5072364;28;20197;-76
2022/12/12 06:59:51;;;;;;;14.73;9.45;;;-4.80;99.90;;;;;;5083116;28;20647;-77
2022/12/12 07:02:19;;;;;;;19.92;12.20;;;-4.80;99.90;;;;;;5066603;28;20301;-76
2022/12/12 07:04:46;;;;;;;12.18;7.70;;;-4.80;99.90;;;;;;5066201;28;20237;-76
2022/12/12 07:07:14;;;;;;;14.15;8.30;;;-4.80;99.90;;;;;;5063403;28;20209;-76
2022/12/12 07:09:41;;;;;;;13.98;8.40;;;-4.80;99.90;;;;;;5068218;28;20643;-76
2022/12/12 07:12:08;;;;;;;15.90;8.45;;;-4.80;99.90;;;;;;5068930;28;20291;-76
2022/12/12 07:14:37;;;;;;;15.57;9.48;;;-4.80;99.90;;;;;;5067263;28;20245;-77
2022/12/12 07:17:04;;;;;;;16.02;9.13;;;-4.80;99.90;;;;;;5072306;28;20245;-76
2022/12/12 07:19:31;;;;;;;11.18;8.13;;;-4.80;99.90;;;;;;5067743;28;20676;-76
2022/12/12 07:21:58;;;;;;;13.45;8.95;;;-4.90;99.90;;;;;;5067219;28;20294;-76
2022/12/12 07:24:26;;;;;;;18.45;10.57;;;-4.90;99.90;;;;;;5064844;28;20237;-76
2022/12/12 07:26:53;;;;;;;15.98;9.75;;;-4.90;99.90;;;;;;5068361;28;20278;-76
2022/12/12 07:29:20;;;;;;;16.30;11.35;;;-4.80;99.90;;;;;;5068860;28;20260;-76
2022/12/12 07:31:47;;;;;;;15.20;9.52;;;-4.80;99.90;;;;;;5067959;28;20252;-76
2022/12/12 07:34:14;;;;;;;15.25;10.00;;;-4.70;99.90;;;;;;5070879;28;20249;-76
2022/12/12 07:36:41;;;;;;;17.10;10.15;;;-4.70;99.90;;;;;;5068735;28;20672;-76
2022/12/12 07:39:08;;;;;;;18.25;9.93;;;-4.60;99.90;;;;;;5067071;28;20236;-76
2022/12/12 07:41:37;;;;;;;16.58;10.35;;;-4.50;99.90;;;;;;5071457;28;20255;-76
2022/12/12 07:44:04;;;;;;;17.92;10.90;;;-4.50;99.90;;;;;;5070064;28;20638;-76
2022/12/12 07:46:32;;;;;;;17.27;11.52;;;-4.50;99.90;;;;;;5067020;28;20228;-76
2022/12/12 07:48:59;;;;;;;54.22;32.53;;;-4.40;99.90;;;;;;5075283;28;20233;-76
2022/12/12 07:51:26;;;;;;;20.20;12.68;;;-4.40;99.90;;;;;;5068457;28;20236;-76
2022/12/12 07:53:53;;;;;;;18.20;12.55;;;-4.40;99.90;;;;;;5071483;28;20313;-77
2022/12/12 07:56:20;;;;;;;17.75;11.10;;;-4.50;99.90;;;;;;5070534;28;20314;-77
2022/12/12 07:58:48;;;;;;;15.15;10.23;;;-4.50;99.90;;;;;;5066143;28;20197;-77
2022/12/12 08:01:17;;;;;;;25.23;15.23;;;-4.50;99.90;;;;;;5064350;28;20251;-77
2022/12/12 08:03:45;;;;;;;19.85;11.32;;;-4.50;99.90;;;;;;5066962;28;20315;-77
2022/12/12 08:06:15;;;;;;;16.98;11.10;;;-4.40;99.90;;;;;;5072302;28;20709;-77
2022/12/12 08:08:41;;;;;;;23.33;12.00;;;-4.40;99.90;;;;;;5067145;28;20669;-76
2022/12/12 08:11:11;;;;;;;14.40;10.05;;;-4.30;99.90;;;;;;5069340;28;20248;-76
2022/12/12 08:13:39;;;;;;;16.00;10.82;;;-4.20;99.90;;;;;;5072799;28;20295;-77
2022/12/12 08:16:14;;;;;;;17.20;10.05;;;-4.20;99.90;;;;;;5072132;28;20233;-76
2022/12/12 08:18:41;;;;;;;15.98;8.93;;;-4.10;99.90;;;;;;5071220;28;20730;-76
2022/12/12 08:21:09;;;;;;;16.38;10.60;;;-4.00;99.90;;;;;;5067453;28;20233;-76
2022/12/12 08:23:36;;;;;;;17.83;10.93;;;-4.00;99.90;;;;;;5066849;28;20576;-76
2022/12/12 08:26:04;;;;;;;16.48;11.30;;;-4.00;99.90;;;;;;5066104;28;20229;-76
2022/12/12 08:28:31;;;;;;;16.70;11.60;;;-4.10;99.90;;;;;;5067317;28;20213;-76
2022/12/12 08:30:58;;;;;;;11.80;8.90;;;-4.10;99.90;;;;;;5066224;28;20298;-77
2022/12/12 08:33:26;;;;;;;25.10;17.65;;;-4.20;99.90;;;;;;5064217;28;20237;-77
2022/12/12 08:35:53;;;;;;;24.15;12.50;;;-4.20;99.90;;;;;;5067735;28;20240;-77
2022/12/12 08:38:20;;;;;;;17.80;10.50;;;-4.20;99.90;;;;;;5064475;28;20286;-76
2022/12/12 08:40:47;;;;;;;13.25;8.20;;;-4.20;99.90;;;;;;5071838;28;20579;-76
2022/12/12 08:43:14;;;;;;;13.18;8.45;;;-4.30;99.90;;;;;;5064928;28;20249;-77
2022/12/12 08:45:41;;;;;;;19.58;8.82;;;-4.20;99.90;;;;;;5064602;28;20294;-77
2022/12/12 08:48:10;;;;;;;10.10;6.97;;;-4.00;99.90;;;;;;5065321;28;20241;-77
2022/12/12 08:50:40;;;;;;;11.88;8.50;;;-3.80;99.90;;;;;;5071667;28;20222;-77
2022/12/12 08:53:07;;;;;;;10.82;6.82;;;-3.90;99.90;;;;;;5064300;28;20202;-77
2022/12/12 08:55:34;;;;;;;10.85;7.22;;;-3.90;99.90;;;;;;5063861;28;20699;-77
2022/12/12 08:58:01;;;;;;;13.55;8.30;;;-3.90;99.90;;;;;;5067054;28;20205;-77
2022/12/12 09:00:28;;;;;;;15.80;10.23;;;-3.90;99.90;;;;;;5071942;28;20225;-76
2022/12/12 09:02:55;;;;;;;12.50;8.30;;;-3.80;99.90;;;;;;5065619;28;20290;-76
2022/12/12 09:05:22;;;;;;;13.82;8.30;;;-3.70;99.90;;;;;;5068027;28;20259;-77
2022/12/12 09:07:50;;;;;;;9.05;7.50;;;-3.70;99.90;;;;;;5072563;28;20242;-77
2022/12/12 09:10:17;;;;;;;11.02;5.65;;;-3.60;99.90;;;;;;5063901;28;20265;-77
2022/12/12 09:12:44;;;;;;;7.32;5.22;;;-3.60;99.90;;;;;;5076515;28;20243;-77
2022/12/12 09:15:11;;;;;;;10.30;6.35;;;-3.60;99.90;;;;;;5065810;28;21112;-80
2022/12/12 09:17:38;;;;;;;6.70;5.93;;;-3.40;99.90;;;;;;5075029;28;20293;-77
2022/12/12 09:20:06;;;;;;;10.20;5.93;;;-3.20;99.90;;;;;;5075010;28;20229;-77
2022/12/12 09:22:33;;;;;;;6.93;5.75;;;-3.10;99.90;;;;;;5068611;28;20240;-77
2022/12/12 09:25:01;;;;;;;8.48;7.07;;;-2.80;99.90;;;;;;5077641;28;20209;-77
2022/12/12 09:27:28;;;;;;;10.13;6.45;;;-2.60;99.90;;;;;;5074271;28;20234;-77
2022/12/12 09:29:55;;;;;;;17.42;7.65;;;-2.40;99.90;;;;;;5069311;28;20261;-77
2022/12/12 09:32:22;;;;;;;13.25;6.88;;;-2.30;99.90;;;;;;5067994;28;20554;-77
2022/12/12 09:34:49;;;;;;;10.20;6.72;;;-2.30;99.90;;;;;;5072362;28;20256;-77
2022/12/12 09:37:16;;;;;;;9.80;6.65;;;-2.30;99.90;;;;;;5078621;28;20727;-77
2022/12/12 09:39:43;;;;;;;11.70;5.25;;;-2.30;99.90;;;;;;5068074;28;20233;-76
2022/12/12 09:42:20;;;;;;;8.60;6.60;;;-2.40;99.90;;;;;;5073989;28;20677;-77
2022/12/12 09:44:48;;;;;;;10.73;4.05;;;-2.40;99.90;;;;;;5069842;28;20271;-77
2022/12/12 09:47:19;;;;;;;12.70;8.45;;;-2.20;99.90;;;;;;5073950;28;20214;-77
2022/12/12 09:49:49;;;;;;;11.93;8.10;;;-2.10;99.90;;;;;;5068163;28;20310;-77
2022/12/12 09:52:19;;;;;;;7.70;5.00;;;-2.10;99.90;;;;;;5067823;28;20253;-77
2022/12/12 09:54:46;;;;;;;12.60;6.97;;;-2.10;99.90;;;;;;5069841;28;20201;-77
2022/12/12 09:57:24;;;;;;;13.38;7.82;;;-2.00;99.90;;;;;;5075989;28;20245;-77
2022/12/12 09:59:58;;;;;;;9.73;6.53;;;-2.00;99.90;;;;;;5069361;28;20286;-77
2022/12/12 10:03:01;;;;;;;8.02;6.22;;;-2.00;99.90;;;;;;5071101;28;20509;-77
2022/12/12 10:05:37;;;;;;;8.32;5.93;;;-1.80;99.90;;;;;;5069433;28;20237;-77
2022/12/12 10:08:12;;;;;;;13.52;7.30;;;-1.80;99.90;;;;;;5073373;28;20207;-77
2022/12/12 10:10:41;;;;;;;15.68;6.80;;;-1.80;99.90;;;;;;5072204;28;20283;-77
2022/12/12 10:13:15;;;;;;;9.40;6.50;;;-1.80;99.90;;;;;;5076832;28;20369;-77
2022/12/12 10:15:46;;;;;;;8.15;5.47;;;-1.70;99.90;;;;;;5074062;28;20252;-77
2022/12/12 10:18:17;;;;;;;9.95;7.30;;;-1.70;99.90;;;;;;5075319;28;20251;-77
2022/12/12 10:20:49;;;;;;;11.20;6.70;;;-1.70;99.90;;;;;;5076511;28;20220;-77
2022/12/12 10:23:23;;;;;;;11.10;7.88;;;-1.80;99.90;;;;;;5068476;28;20216;-77
2022/12/12 10:25:55;;;;;;;9.75;7.25;;;-1.90;99.90;;;;;;5077981;28;20229;-77
2022/12/12 10:28:27;;;;;;;11.93;6.75;;;-1.90;99.90;;;;;;5069939;28;20221;-77
2022/12/12 10:31:27;;;;;;;13.90;7.82;;;-1.80;99.90;;;;;;5079361;28;20248;-77
2022/12/12 10:34:11;;;;;;;8.48;5.60;;;-1.80;99.90;;;;;;5073179;28;20206;-77
2022/12/12 10:36:56;;;;;;;9.73;6.75;;;-1.70;99.90;;;;;;5073872;28;20230;-77
2022/12/12 10:39:28;;;;;;;14.45;8.73;;;-1.50;99.90;;;;;;5075674;28;20271;-78
2022/12/12 10:42:00;;;;;;;10.07;7.15;;;-1.50;99.90;;;;;;5074380;28;20581;-78
2022/12/12 10:44:50;;;;;;;13.52;7.70;;;-1.70;99.90;;;;;;5076788;28;20261;-77
2022/12/12 10:47:18;;;;;;;9.95;6.93;;;-1.50;99.90;;;;;;5073489;28;20216;-77
2022/12/12 10:49:44;;;;;;;12.73;7.88;;;-1.60;99.90;;;;;;5074110;28;20258;-77
2022/12/12 10:52:18;;;;;;;10.75;7.68;;;-1.60;99.90;;;;;;5076758;28;20272;-77
2022/12/12 10:54:48;;;;;;;9.88;7.97;;;-1.40;99.90;;;;;;5072222;28;20243;-77
2022/12/12 10:57:20;;;;;;;15.02;10.38;;;-1.30;99.90;;;;;;5083381;28;20236;-77
2022/12/12 10:59:52;;;;;;;13.40;8.40;;;-1.40;99.90;;;;;;5071365;28;20312;-77
2022/12/12 11:02:30;;;;;;;12.95;8.30;;;-1.50;99.90;;;;;;5069571;28;20211;-77
2022/12/12 11:05:08;;;;;;;16.17;9.15;;;-1.50;99.90;;;;;;5068116;28;20202;-77
2022/12/12 11:07:37;;;;;;;14.43;8.98;;;-1.60;99.90;;;;;;5066470;28;20207;-75
2022/12/12 11:10:24;;;;;;;13.82;9.38;;;-1.50;99.90;;;;;;5068733;28;20259;-75
2022/12/12 11:13:00;;;;;;;18.42;10.85;;;-1.50;99.90;;;;;;5074357;28;20232;-75
2022/12/12 11:15:40;;;;;;;12.25;8.80;;;-1.50;99.90;;;;;;5065766;28;20234;-77
2022/12/12 11:18:13;;;;;;;12.30;8.70;;;-1.40;99.90;;;;;;5075431;28;20234;-77
2022/12/12 11:20:45;;;;;;;10.65;7.25;;;-1.40;99.90;;;;;;5071632;28;20298;-77
2022/12/12 11:23:18;;;;;;;12.43;8.52;;;-1.50;99.90;;;;;;5067980;28;20251;-77
2022/12/12 11:25:46;;;;;;;13.73;8.45;;;-1.50;99.90;;;;;;5066819;28;20208;-78
2022/12/12 11:28:21;;;;;;;9.27;8.30;;;-1.40;99.90;;;;;;5073354;28;20663;-77
2022/12/12 11:30:52;;;;;;;12.82;8.02;;;-1.30;99.90;;;;;;5069515;28;20256;-77
2022/12/12 11:33:22;;;;;;;12.32;9.38;;;-1.20;99.90;;;;;;5067492;28;20237;-77
2022/12/12 11:35:55;;;;;;;11.70;8.40;;;-1.20;99.90;;;;;;5069611;28;20214;-77
2022/12/12 11:38:27;;;;;;;17.80;7.80;;;-1.10;99.90;;;;;;5073220;28;20212;-77
2022/12/12 11:41:01;;;;;;;14.68;7.28;;;-0.90;99.90;;;;;;5074092;28;20200;-77
2022/12/12 11:43:29;;;;;;;12.07;6.90;;;-0.80;99.90;;;;;;5069503;28;20216;-77
2022/12/12 11:46:04;;;;;;;10.67;7.30;;;-0.80;99.90;;;;;;5070516;28;20909;-77
2022/12/12 11:48:43;;;;;;;15.17;9.30;;;-0.70;99.90;;;;;;5073813;28;20841;-77
2022/12/12 11:51:10;;;;;;;12.18;8.85;;;-0.70;99.90;;;;;;5076707;28;20486;-77
2022/12/12 11:53:39;;;;;;;13.32;7.70;;;-0.70;99.90;;;;;;5064481;28;20243;-77
2022/12/12 11:56:33;;;;;;;12.50;7.53;;;-0.90;99.90;;;;;;5068317;28;20231;-77
2022/12/12 11:59:21;;;;;;;9.35;7.35;;;-0.80;99.90;;;;;;5074957;28;20294;-77
2022/12/12 12:01:57;;;;;;;8.50;6.07;;;-0.90;99.90;;;;;;5071863;28;20205;-76
2022/12/12 12:04:41;;;;;;;10.07;7.88;;;-1.10;99.90;;;;;;5075477;28;20469;-77
2022/12/12 12:07:27;;;;;;;14.32;7.65;;;-0.80;99.90;;;;;;5073235;28;20239;-76
2022/12/12 12:10:01;;;;;;;10.63;6.50;;;-0.70;99.90;;;;;;5066385;28;20847;-77
2022/12/12 12:12:38;;;;;;;12.13;8.73;;;-0.90;99.90;;;;;;5067122;28;20212;-76
2022/12/12 12:15:29;;;;;;;9.50;6.85;;;-1.00;99.90;;;;;;5066615;28;20233;-75
2022/12/12 12:18:34;;;;;;;13.95;8.13;;;-1.10;99.90;;;;;;5086762;28;20231;-76
2022/12/12 12:21:23;;;;;;;10.70;7.18;;;-1.10;99.90;;;;;;5021031;28;20239;-75
2022/12/12 12:23:59;;;;;;;10.95;7.60;;;-0.80;99.90;;;;;;5073551;28;20203;-76
2022/12/12 12:26:34;;;;;;;10.40;5.85;;;-0.70;99.90;;;;;;5078797;28;20242;-76
2022/12/12 12:29:32;;;;;;;9.52;5.93;;;-0.70;99.90;;;;;;5071003;28;20768;-76
2022/12/12 12:32:09;;;;;;;7.30;5.30;;;-0.70;99.90;;;;;;5066036;28;20255;-75
2022/12/12 12:34:47;;;;;;;12.55;5.90;;;-0.90;99.90;;;;;;5064266;28;20246;-76
2022/12/12 12:37:31;;;;;;;8.48;5.35;;;-1.10;99.90;;;;;;5073690;28;20722;-76
2022/12/12 12:40:14;;;;;;;11.82;5.63;;;-1.10;99.90;;;;;;5067009;28;20314;-76
2022/12/12 12:42:56;;;;;;;10.90;6.93;;;-1.00;99.90;;;;;;5064565;28;20333;-76
2022/12/12 12:45:36;;;;;;;11.65;7.07;;;-1.00;99.90;;;;;;5065044;28;20239;-76
2022/12/12 12:48:09;;;;;;;8.80;6.15;;;-1.20;99.90;;;;;;5068155;28;20228;-76
2022/12/12 12:50:42;;;;;;;9.02;7.05;;;-1.30;99.90;;;;;;5074871;28;20307;-76
2022/12/12 12:53:21;;;;;;;14.13;6.75;;;-1.50;99.90;;;;;;5078976;28;20237;-76
2022/12/12 12:55:51;;;;;;;11.65;7.20;;;-1.50;99.90;;;;;;5069307;28;20242;-76
2022/12/12 12:58:22;;;;;;;8.63;5.15;;;-1.40;99.90;;;;;;5077046;28;20242;-76
2022/12/12 13:00:53;;;;;;;10.65;6.43;;;-1.40;99.90;;;;;;5072609;28;20251;-76
2022/12/12 13:03:24;;;;;;;9.13;6.22;;;-1.50;99.90;;;;;;5079469;28;20782;-76
2022/12/12 13:05:57;;;;;;;13.82;7.13;;;-1.50;99.90;;;;;;5068772;28;20777;-76
2022/12/12 13:08:29;;;;;;;6.07;4.95;;;-1.60;99.90;;;;;;5067383;28;20255;-76
2022/12/12 13:11:01;;;;;;;7.93;5.30;;;-1.80;99.90;;;;;;5065908;28;20676;-75
2022/12/12 13:13:31;;;;;;;9.30;6.18;;;-1.90;99.90;;;;;;5063910;28;20237;-76